Time;durP1;ratioP1;P1;durP2;ratioP2;P2;SDS_P1;SDS_P2;PMS_P1;PMS_P2;Temp;Humidity;BMP_temperature;BMP_pressure;BME280_temperature;BME280_humidity;BME280_pressure;Samples;Min_cycle;Max_cycle;Signal;HPM_P1;HPM_P2
2022/08/23 00:01:01;;;;;;;9.90;6.70;;;18.40;99.90;;;;;;5043347;28;20045;-56
2022/08/23 00:03:27;;;;;;;8.15;6.05;;;18.30;99.90;;;;;;5042711;28;20140;-57
2022/08/23 00:05:52;;;;;;;11.80;6.00;;;18.20;99.90;;;;;;5042617;28;20103;-56
2022/08/23 00:08:18;;;;;;;10.00;6.15;;;18.20;99.90;;;;;;5043358;28;20037;-57
2022/08/23 00:10:43;;;;;;;11.13;6.10;;;18.20;99.90;;;;;;5042741;28;20041;-56
2022/08/23 00:13:09;;;;;;;9.63;5.95;;;18.10;99.90;;;;;;5043485;28;20053;-56
2022/08/23 00:15:35;;;;;;;11.23;6.18;;;18.20;99.90;;;;;;5043097;28;20454;-56
2022/08/23 00:18:00;;;;;;;13.13;6.10;;;18.20;99.90;;;;;;5042577;28;20506;-57
2022/08/23 00:20:26;;;;;;;11.13;6.70;;;18.10;99.90;;;;;;5042662;28;20095;-57
2022/08/23 00:22:52;;;;;;;11.23;6.53;;;18.20;99.90;;;;;;5043104;28;20132;-57
2022/08/23 00:25:18;;;;;;;9.38;6.43;;;18.10;99.90;;;;;;5043499;28;20041;-56
2022/08/23 00:27:43;;;;;;;10.23;6.10;;;18.10;99.90;;;;;;5042494;28;20115;-57
2022/08/23 00:30:11;;;;;;;8.38;6.30;;;18.10;99.90;;;;;;5043119;28;20411;-56
2022/08/23 00:32:39;;;;;;;11.82;6.70;;;18.10;99.90;;;;;;5041894;28;20044;-57
2022/08/23 00:35:08;;;;;;;10.57;6.57;;;18.10;99.90;;;;;;5043255;28;20048;-58
2022/08/23 00:37:34;;;;;;;11.52;7.43;;;18.10;99.90;;;;;;5043138;28;20423;-55
2022/08/23 00:40:00;;;;;;;11.13;7.78;;;18.10;99.90;;;;;;5043142;28;20116;-57
2022/08/23 00:48:11;;;;;;;11.23;7.70;;;17.90;99.90;;;;;;5041642;28;20052;-57
2022/08/23 00:50:53;;;;;;;10.93;7.75;;;17.90;99.90;;;;;;5024682;28;20416;-55
2022/08/23 00:53:26;;;;;;;12.23;7.90;;;17.90;99.90;;;;;;5041833;28;20507;-56
2022/08/23 00:55:56;;;;;;;11.52;7.88;;;17.90;99.90;;;;;;5042419;28;20052;-56
2022/08/23 00:58:23;;;;;;;11.43;7.25;;;17.90;99.90;;;;;;5042578;28;20458;-55
2022/08/23 01:00:52;;;;;;;11.38;7.70;;;17.90;99.90;;;;;;5041086;28;20123;-57
2022/08/23 01:03:19;;;;;;;12.40;7.47;;;17.90;99.90;;;;;;5042470;28;20057;-56
2022/08/23 01:06:00;;;;;;;10.32;7.45;;;17.90;99.90;;;;;;5038883;28;20607;-58
2022/08/23 01:08:29;;;;;;;12.73;7.72;;;17.90;99.90;;;;;;5031246;28;20045;-55
2022/08/23 01:11:09;;;;;;;12.68;7.78;;;17.90;99.90;;;;;;5022211;28;20057;-56
2022/08/23 01:13:47;;;;;;;13.95;9.63;;;17.90;99.90;;;;;;5021501;28;20052;-57
2022/08/23 01:16:18;;;;;;;14.52;9.25;;;17.70;99.90;;;;;;5021884;28;20488;-56
2022/08/23 01:18:46;;;;;;;14.20;9.50;;;17.70;99.90;;;;;;5004360;28;20053;-57
2022/08/23 01:21:37;;;;;;;13.85;9.38;;;17.70;99.90;;;;;;5022464;28;20129;-56
2022/08/23 01:24:04;;;;;;;12.52;9.93;;;17.70;99.90;;;;;;5022406;28;20049;-55
2022/08/23 01:26:33;;;;;;;14.63;9.88;;;17.60;99.90;;;;;;5022104;28;20688;-55
2022/08/23 01:29:02;;;;;;;12.80;9.80;;;17.70;99.90;;;;;;5004382;28;20156;-55
2022/08/23 01:31:28;;;;;;;13.88;9.30;;;17.60;99.90;;;;;;5021189;28;20049;-56
2022/08/23 01:33:59;;;;;;;13.02;9.95;;;17.60;99.90;;;;;;5021665;28;20381;-55
2022/08/23 01:36:26;;;;;;;12.32;10.27;;;17.60;99.90;;;;;;5021918;28;20500;-56
2022/08/23 01:38:52;;;;;;;11.30;9.73;;;17.60;99.90;;;;;;5004180;28;20049;-54
2022/08/23 01:41:18;;;;;;;15.30;9.77;;;17.60;99.90;;;;;;5021549;28;20565;-56
2022/08/23 01:43:44;;;;;;;16.98;10.27;;;17.50;99.90;;;;;;5021806;28;20052;-56
2022/08/23 01:46:13;;;;;;;11.55;9.55;;;17.50;99.90;;;;;;5021495;28;20050;-56
2022/08/23 01:48:40;;;;;;;12.05;9.82;;;17.50;99.90;;;;;;5003607;28;20065;-56
2022/08/23 01:51:06;;;;;;;11.77;9.77;;;17.50;99.90;;;;;;5022139;28;20037;-56
2022/08/23 01:53:32;;;;;;;12.52;9.60;;;17.50;99.90;;;;;;5004603;28;20085;-57
2022/08/23 01:56:00;;;;;;;13.35;9.93;;;17.50;99.90;;;;;;5030550;28;20087;-56
2022/08/23 01:58:27;;;;;;;11.90;9.93;;;17.40;99.90;;;;;;5022065;28;20455;-55
2022/08/23 02:00:53;;;;;;;12.88;10.95;;;17.40;99.90;;;;;;5021213;28;20042;-55
2022/08/23 02:03:19;;;;;;;14.70;11.80;;;17.30;99.90;;;;;;5021993;28;20057;-55
2022/08/23 02:05:45;;;;;;;14.55;11.30;;;17.30;99.90;;;;;;5023487;28;20128;-56
2022/08/23 02:10:56;;;;;;;15.07;10.23;;;17.30;99.90;;;;;;5021027;28;20066;-56
2022/08/23 02:13:22;;;;;;;11.68;10.35;;;17.40;99.90;;;;;;5022083;28;20574;-57
2022/08/23 02:15:51;;;;;;;13.48;10.40;;;17.30;99.90;;;;;;5020994;28;20034;-56
2022/08/23 02:18:19;;;;;;;12.73;10.88;;;17.30;99.90;;;;;;5022064;28;20048;-57
2022/08/23 02:20:47;;;;;;;14.15;11.45;;;17.20;99.90;;;;;;5021355;28;20045;-55
2022/08/23 02:23:13;;;;;;;12.65;11.13;;;17.30;99.90;;;;;;5021722;28;20052;-56
2022/08/23 02:25:39;;;;;;;18.58;11.63;;;17.20;99.90;;;;;;5021610;28;20049;-56
2022/08/23 02:28:06;;;;;;;12.38;11.07;;;17.20;99.90;;;;;;5021262;28;20484;-57
2022/08/23 02:30:31;;;;;;;17.95;12.32;;;17.20;99.90;;;;;;5021245;28;20099;-57
2022/08/23 02:32:57;;;;;;;15.82;12.40;;;17.10;99.90;;;;;;5003680;28;20053;-56
2022/08/23 02:35:23;;;;;;;14.45;11.40;;;17.20;99.90;;;;;;5003213;28;20046;-56
2022/08/23 02:37:51;;;;;;;11.77;10.63;;;17.20;99.90;;;;;;5023609;28;20144;-57
2022/08/23 02:40:17;;;;;;;13.68;11.65;;;17.20;99.90;;;;;;5025248;28;20570;-56
2022/08/23 02:42:43;;;;;;;15.95;11.70;;;17.10;99.90;;;;;;5025170;28;20151;-57
2022/08/23 02:45:09;;;;;;;20.33;12.00;;;17.20;99.90;;;;;;5024431;28;20049;-56
2022/08/23 02:47:35;;;;;;;13.27;11.23;;;17.10;99.90;;;;;;5006354;28;20095;-56
2022/08/23 02:50:05;;;;;;;13.50;11.73;;;17.10;99.90;;;;;;5025347;28;20128;-56
2022/08/23 02:52:32;;;;;;;13.48;12.05;;;17.00;99.90;;;;;;5024696;28;20124;-55
2022/08/23 02:54:58;;;;;;;12.85;10.30;;;17.00;99.90;;;;;;5024704;28;20049;-56
2022/08/23 02:57:25;;;;;;;13.82;11.70;;;17.00;99.90;;;;;;5024888;28;20576;-56
2022/08/23 02:59:51;;;;;;;14.65;13.00;;;17.00;99.90;;;;;;5024064;28;20064;-56
2022/08/23 03:02:17;;;;;;;15.25;11.93;;;16.90;99.90;;;;;;5024259;28;20437;-56
2022/08/23 03:04:44;;;;;;;13.85;12.43;;;16.90;99.90;;;;;;5024187;28;20080;-56
2022/08/23 03:07:09;;;;;;;15.00;13.55;;;16.90;99.90;;;;;;5035784;28;20411;-57
2022/08/23 03:09:35;;;;;;;17.00;13.35;;;16.90;99.90;;;;;;5024296;28;20037;-57
2022/08/23 03:12:01;;;;;;;15.85;13.57;;;16.90;99.90;;;;;;5007167;28;20454;-56
2022/08/23 03:14:26;;;;;;;16.98;13.90;;;16.90;99.90;;;;;;5024490;28;20073;-57
2022/08/23 03:16:53;;;;;;;13.57;12.18;;;16.90;99.90;;;;;;5023084;28;20048;-56
2022/08/23 03:19:18;;;;;;;13.95;12.32;;;16.90;99.90;;;;;;5024544;28;20083;-57
2022/08/23 03:21:44;;;;;;;15.40;13.13;;;16.90;99.90;;;;;;5024459;28;20073;-55
2022/08/23 03:24:10;;;;;;;13.63;12.32;;;16.80;99.90;;;;;;5024769;28;20049;-57
2022/08/23 03:26:36;;;;;;;14.10;12.60;;;16.80;99.90;;;;;;5023644;28;20116;-56
2022/08/23 03:29:02;;;;;;;14.77;12.32;;;16.80;99.90;;;;;;5024917;28;20056;-55
2022/08/23 03:31:28;;;;;;;13.05;11.82;;;16.80;99.90;;;;;;5023756;28;20050;-56
2022/08/23 03:33:54;;;;;;;18.70;14.73;;;16.70;99.90;;;;;;5023543;28;20056;-56
2022/08/23 03:36:20;;;;;;;16.42;14.73;;;16.80;99.90;;;;;;5024268;28;20041;-57
2022/08/23 03:38:46;;;;;;;17.30;15.48;;;16.60;99.90;;;;;;5006089;28;20412;-55
2022/08/23 03:41:12;;;;;;;18.00;14.77;;;16.60;99.90;;;;;;5024059;28;20544;-55
2022/08/23 03:43:38;;;;;;;16.63;14.85;;;16.60;99.90;;;;;;5023370;28;20080;-58
2022/08/23 03:46:05;;;;;;;20.52;14.90;;;16.60;99.90;;;;;;5023674;28;20069;-55
2022/08/23 03:48:31;;;;;;;18.42;15.95;;;16.60;99.90;;;;;;5005980;28;20053;-57
2022/08/23 03:50:57;;;;;;;17.95;14.80;;;16.60;99.90;;;;;;5023101;28;20052;-56
2022/08/23 03:53:23;;;;;;;19.50;16.42;;;16.60;99.90;;;;;;5023754;28;20068;-56
2022/08/23 03:55:49;;;;;;;17.50;15.70;;;16.60;99.90;;;;;;5023840;28;20163;-56
2022/08/23 03:58:15;;;;;;;18.95;16.95;;;16.60;99.90;;;;;;5023696;28;20087;-56
2022/08/23 04:00:41;;;;;;;18.23;16.40;;;16.70;99.90;;;;;;5022143;28;20046;-56
2022/08/23 04:03:07;;;;;;;18.02;16.08;;;16.70;99.90;;;;;;5023529;28;20057;-57
2022/08/23 04:05:32;;;;;;;19.60;16.63;;;16.70;99.90;;;;;;5026180;28;20613;-57
2022/08/23 04:08:00;;;;;;;18.98;16.60;;;16.60;99.90;;;;;;5031790;28;20067;-57
2022/08/23 04:10:25;;;;;;;18.33;16.52;;;16.70;99.90;;;;;;5005989;28;20450;-55
2022/08/23 04:12:53;;;;;;;17.48;15.63;;;16.60;99.90;;;;;;5023215;28;20144;-56
2022/08/23 04:15:20;;;;;;;17.73;15.85;;;16.70;99.90;;;;;;5022654;28;20046;-56
2022/08/23 04:17:46;;;;;;;18.58;16.55;;;16.60;99.90;;;;;;5022889;28;20236;-57
2022/08/23 04:20:12;;;;;;;17.20;15.48;;;16.60;99.90;;;;;;5023565;28;20563;-56
2022/08/23 04:22:37;;;;;;;18.77;16.80;;;16.60;99.90;;;;;;5023007;28;20467;-56
2022/08/23 04:25:04;;;;;;;18.10;16.00;;;16.50;99.90;;;;;;5005491;28;20080;-56
2022/08/23 04:27:30;;;;;;;19.08;16.25;;;16.50;99.90;;;;;;5023529;28;20049;-56
2022/08/23 04:29:57;;;;;;;17.33;15.52;;;16.50;99.90;;;;;;5022697;28;20041;-55
2022/08/23 04:32:23;;;;;;;18.27;16.38;;;16.40;99.90;;;;;;5022146;28;20049;-56
2022/08/23 04:34:48;;;;;;;17.70;15.88;;;16.50;99.90;;;;;;5022232;28;20045;-56
2022/08/23 04:37:15;;;;;;;19.67;17.25;;;16.40;99.90;;;;;;5023169;28;20048;-57
2022/08/23 04:42:25;;;;;;;19.27;17.38;;;16.30;99.90;;;;;;5023062;28;20103;-56
2022/08/23 04:44:51;;;;;;;20.38;17.90;;;16.30;99.90;;;;;;5022839;28;20037;-54
2022/08/23 04:47:17;;;;;;;17.80;15.90;;;16.20;99.90;;;;;;5022429;28;20052;-55
2022/08/23 04:49:42;;;;;;;18.15;16.30;;;16.20;99.90;;;;;;5022358;28;20084;-56
2022/08/23 04:52:08;;;;;;;18.85;16.95;;;16.30;99.90;;;;;;5022614;28;20100;-56
2022/08/23 04:54:34;;;;;;;18.35;16.55;;;16.30;99.90;;;;;;5022943;28;20048;-56
2022/08/23 04:56:59;;;;;;;17.92;15.43;;;16.30;99.90;;;;;;5022005;28;20049;-56
2022/08/23 04:59:25;;;;;;;15.90;14.30;;;16.30;99.90;;;;;;5022932;28;20083;-56
2022/08/23 05:01:50;;;;;;;17.23;15.38;;;16.30;99.90;;;;;;5003443;28;20049;-56
2022/08/23 05:04:17;;;;;;;18.63;16.63;;;16.30;99.90;;;;;;5022313;28;20144;-57
2022/08/23 05:06:44;;;;;;;18.83;17.02;;;16.40;99.90;;;;;;5028887;28;20045;-56
2022/08/23 05:09:10;;;;;;;18.45;16.70;;;16.40;99.90;;;;;;5026022;28;20038;-56
2022/08/23 05:11:36;;;;;;;20.38;17.17;;;16.40;99.90;;;;;;5022010;28;20055;-56
2022/08/23 05:14:01;;;;;;;18.90;16.90;;;16.50;99.90;;;;;;5021845;28;20037;-56
2022/08/23 05:16:27;;;;;;;18.98;17.02;;;16.50;99.90;;;;;;5021718;28;20075;-56
2022/08/23 05:18:52;;;;;;;18.40;16.52;;;16.60;99.90;;;;;;5021789;28;20132;-55
2022/08/23 05:21:21;;;;;;;19.85;17.70;;;16.60;99.90;;;;;;5022425;28;20081;-56
2022/08/23 05:23:47;;;;;;;21.70;17.48;;;16.70;99.90;;;;;;5021826;28;20046;-56
2022/08/23 05:26:13;;;;;;;19.55;17.33;;;16.80;99.90;;;;;;5022304;28;20387;-57
2022/08/23 05:28:44;;;;;;;19.27;17.05;;;16.90;99.90;;;;;;5021877;28;20065;-56
2022/08/23 05:31:26;;;;;;;24.05;16.83;;;16.90;99.90;;;;;;5020883;28;20051;-56
2022/08/23 05:33:52;;;;;;;19.48;16.77;;;16.90;99.90;;;;;;5022230;28;20045;-55
2022/08/23 05:36:19;;;;;;;18.63;16.60;;;17.00;99.90;;;;;;5021573;28;20045;-56
2022/08/23 05:38:45;;;;;;;18.60;16.95;;;17.10;99.90;;;;;;5027324;28;20400;-56
2022/08/23 05:41:12;;;;;;;19.48;17.48;;;17.20;99.90;;;;;;5007866;28;20041;-55
2022/08/23 05:43:37;;;;;;;20.10;17.88;;;17.50;99.90;;;;;;5041697;28;20083;-55
2022/08/23 05:46:15;;;;;;;19.95;17.58;;;18.20;99.90;;;;;;5041145;28;20080;-56
2022/08/23 05:48:45;;;;;;;17.13;15.32;;;18.70;99.90;;;;;;5041540;28;20081;-55
2022/08/23 05:51:35;;;;;;;15.70;14.25;;;19.00;99.90;;;;;;5041029;28;20053;-56
2022/08/23 05:54:05;;;;;;;15.38;13.88;;;19.30;99.90;;;;;;5041850;28;20191;-56
2022/08/23 05:56:34;;;;;;;15.68;13.77;;;19.60;99.90;;;;;;5023854;28;20056;-56
2022/08/23 05:59:05;;;;;;;14.88;13.25;;;20.00;99.90;;;;;;5041615;28;20037;-56
2022/08/23 06:01:32;;;;;;;16.33;13.32;;;20.10;99.90;;;;;;5041342;28;20652;-56
2022/08/23 06:03:59;;;;;;;15.63;13.10;;;20.60;99.90;;;;;;5040547;28;20053;-56
2022/08/23 06:06:25;;;;;;;15.50;11.57;;;20.80;99.90;;;;;;5035397;28;20324;-56
2022/08/23 06:08:51;;;;;;;16.15;12.07;;;20.80;99.90;;;;;;5027903;28;20087;-56
2022/08/23 06:11:24;;;;;;;13.23;11.88;;;20.80;99.90;;;;;;5021967;28;20041;-56
2022/08/23 06:13:58;;;;;;;14.15;12.32;;;20.90;99.90;;;;;;5024566;28;20411;-56
2022/08/23 06:16:26;;;;;;;;;;;21.00;99.90;;;;;;5007752;28;20141;-56
2022/08/23 06:18:53;;;;;;;13.15;11.77;;;21.10;99.90;;;;;;5025299;28;19921;-56
2022/08/23 06:21:19;;;;;;;14.27;10.93;;;21.00;99.90;;;;;;5025597;28;20075;-56
2022/08/23 06:23:48;;;;;;;13.23;10.63;;;21.30;99.90;;;;;;5025198;28;20052;-56
2022/08/23 06:26:24;;;;;;;14.45;11.40;;;21.50;99.90;;;;;;5025613;28;20041;-55
2022/08/23 06:28:52;;;;;;;16.80;10.82;;;21.30;99.90;;;;;;5025270;28;20478;-55
2022/08/23 06:31:44;;;;;;;12.32;11.00;;;21.20;99.90;;;;;;5024648;28;20045;-56
2022/08/23 06:34:06;;;;;;;15.32;9.93;;;21.70;99.90;;;;;;5024916;28;20060;-56
2022/08/23 06:36:32;;;;;;;11.52;9.63;;;21.50;99.90;;;;;;5025587;28;20053;-54
2022/08/23 06:38:58;;;;;;;13.18;9.73;;;21.70;99.90;;;;;;5025003;28;20041;-55
2022/08/23 06:41:24;;;;;;;10.75;8.77;;;21.80;99.90;;;;;;5024386;28;20042;-55
2022/08/23 06:43:50;;;;;;;15.93;9.18;;;21.50;99.90;;;;;;5025237;28;20049;-54
2022/08/23 06:46:18;;;;;;;13.25;9.13;;;21.80;99.90;;;;;;5024676;28;20049;-54
2022/08/23 06:48:45;;;;;;;11.75;8.77;;;21.50;99.90;;;;;;5024209;28;20045;-54
2022/08/23 06:51:24;;;;;;;11.02;8.18;;;21.30;99.90;;;;;;5024967;28;20046;-56
2022/08/23 06:53:55;;;;;;;10.73;8.43;;;22.00;99.90;;;;;;5024628;28;20103;-55
2022/08/23 06:56:23;;;;;;;10.25;8.57;;;21.80;99.90;;;;;;5007323;28;20123;-55
2022/08/23 06:58:51;;;;;;;10.00;8.05;;;21.90;99.90;;;;;;5024599;28;20049;-55
2022/08/23 07:01:43;;;;;;;12.80;8.73;;;22.20;99.90;;;;;;5024195;28;20381;-57
2022/08/23 07:04:11;;;;;;;8.55;7.45;;;22.10;99.90;;;;;;5006994;28;20057;-57
2022/08/23 07:06:37;;;;;;;11.48;8.55;;;22.60;99.90;;;;;;5030914;28;20107;-55
2022/08/23 07:09:04;;;;;;;13.13;8.35;;;21.70;99.90;;;;;;5029291;28;20045;-56
2022/08/23 07:11:31;;;;;;;10.35;7.28;;;21.70;99.90;;;;;;5024988;28;20068;-56
2022/08/23 07:13:59;;;;;;;10.43;7.57;;;21.90;99.90;;;;;;5043169;28;20053;-56
2022/08/23 07:16:33;;;;;;;10.13;7.80;;;21.90;99.90;;;;;;5043179;28;20469;-55
2022/08/23 07:18:58;;;;;;;13.20;7.43;;;21.60;99.90;;;;;;5044354;28;20138;-56
2022/08/23 07:21:24;;;;;;;9.75;7.15;;;21.90;99.90;;;;;;5044459;28;20491;-55
2022/08/23 07:23:50;;;;;;;9.23;7.13;;;21.90;99.90;;;;;;5042719;28;20053;-55
2022/08/23 07:26:16;;;;;;;9.43;7.05;;;22.40;99.90;;;;;;5044312;28;20384;-57
2022/08/23 07:28:43;;;;;;;8.20;7.20;;;22.10;99.90;;;;;;5044212;28;20041;-56
2022/08/23 07:31:15;;;;;;;7.60;6.35;;;22.60;99.90;;;;;;5043496;28;20045;-56
2022/08/23 07:33:42;;;;;;;9.63;6.88;;;22.30;99.90;;;;;;5043795;28;20114;-55
2022/08/23 07:36:11;;;;;;;9.00;6.18;;;22.60;99.90;;;;;;5044072;28;20045;-56
2022/08/23 07:38:37;;;;;;;9.50;5.78;;;22.60;99.90;;;;;;5043533;28;20036;-56
2022/08/23 07:41:03;;;;;;;12.40;6.20;;;23.20;99.90;;;;;;5026443;28;20053;-57
2022/08/23 07:43:32;;;;;;;9.40;6.22;;;23.20;99.90;;;;;;5044063;28;20044;-57
2022/08/23 07:45:57;;;;;;;8.63;5.45;;;23.20;99.90;;;;;;5043130;28;20052;-56
2022/08/23 07:48:24;;;;;;;8.65;5.85;;;23.20;99.90;;;;;;5043268;28;20086;-56
2022/08/23 07:50:53;;;;;;;7.13;5.65;;;23.30;99.90;;;;;;5043368;28;20040;-57
2022/08/23 07:53:20;;;;;;;9.77;5.68;;;23.70;99.90;;;;;;5043850;28;20516;-56
2022/08/23 07:55:46;;;;;;;12.95;5.70;;;23.50;99.90;;;;;;5042843;28;20045;-57
2022/08/23 07:58:11;;;;;;;9.52;6.43;;;23.70;99.90;;;;;;5043560;28;20041;-57
2022/08/23 08:00:37;;;;;;;8.25;5.70;;;23.60;99.90;;;;;;5042620;28;20047;-56
2022/08/23 08:03:03;;;;;;;7.80;5.75;;;23.30;99.90;;;;;;5044014;28;20412;-57
2022/08/23 08:05:33;;;;;;;8.88;5.70;;;23.50;99.90;;;;;;5041172;28;20041;-55
2022/08/23 08:07:58;;;;;;;8.38;5.53;;;23.10;99.90;;;;;;5032237;28;20220;-55
2022/08/23 08:10:24;;;;;;;7.18;5.30;;;23.30;99.90;;;;;;5005975;28;20139;-55
2022/08/23 08:12:50;;;;;;;6.45;5.45;;;23.40;99.90;;;;;;5021800;28;20046;-55
2022/08/23 08:15:17;;;;;;;9.68;5.25;;;23.30;99.90;;;;;;5022747;28;20060;-53
2022/08/23 08:17:45;;;;;;;6.53;4.75;;;23.40;99.90;;;;;;5023039;28;20049;-55
2022/08/23 08:20:11;;;;;;;7.07;4.30;;;24.00;99.90;;;;;;5022730;28;20458;-55
2022/08/23 08:22:36;;;;;;;7.00;5.15;;;23.90;99.90;;;;;;5023379;28;20045;-55
2022/08/23 08:25:02;;;;;;;8.70;4.82;;;24.20;99.90;;;;;;5022528;28;20042;-55
2022/08/23 08:27:28;;;;;;;7.32;5.07;;;24.30;99.90;;;;;;5023285;28;20099;-57
2022/08/23 08:29:54;;;;;;;12.27;4.78;;;24.30;99.90;;;;;;5021449;28;20468;-56
2022/08/23 08:32:19;;;;;;;7.13;4.32;;;24.40;99.90;;;;;;5023201;28;20041;-56
2022/08/23 08:34:45;;;;;;;7.45;4.82;;;24.20;99.90;;;;;;5022961;28;20068;-56
2022/08/23 08:37:11;;;;;;;6.80;4.90;;;24.40;99.90;;;;;;5021457;28;20091;-55
2022/08/23 08:39:44;;;;;;;8.82;4.82;;;24.30;99.90;;;;;;5022023;28;20096;-53
2022/08/23 08:42:29;;;;;;;13.02;4.50;;;24.20;99.90;;;;;;5022861;28;20455;-55
2022/08/23 08:44:59;;;;;;;9.93;4.60;;;24.50;99.90;;;;;;5022162;28;20057;-55
2022/08/23 08:47:41;;;;;;;6.57;4.53;;;24.80;99.90;;;;;;5023068;28;20114;-56
2022/08/23 08:50:19;;;;;;;8.40;4.47;;;24.40;99.90;;;;;;5022238;28;20088;-57
2022/08/23 08:52:50;;;;;;;9.30;4.97;;;24.60;99.90;;;;;;5022660;28;20439;-57
2022/08/23 08:55:47;;;;;;;7.47;4.50;;;24.60;99.90;;;;;;5022542;28;20050;-56
2022/08/23 08:58:26;;;;;;;7.75;4.40;;;25.10;99.90;;;;;;5006600;28;20061;-57
2022/08/23 09:00:52;;;;;;;6.80;5.00;;;25.10;99.90;;;;;;5003794;28;20099;-56
2022/08/23 09:03:19;;;;;;;10.02;4.60;;;25.20;99.90;;;;;;5022285;28;20057;-57
2022/08/23 09:06:00;;;;;;;6.53;4.20;;;25.30;99.90;;;;;;5024806;28;20052;-58
2022/08/23 09:09:07;;;;;;;10.65;4.40;;;25.90;99.90;;;;;;5031535;28;20490;-57
2022/08/23 09:11:54;;;;;;;8.48;4.40;;;25.90;99.90;;;;;;4993187;28;20065;-56
2022/08/23 09:14:31;;;;;;;7.15;4.28;;;25.90;99.90;;;;;;5022616;28;20196;-55
2022/08/23 09:17:02;;;;;;;5.80;4.50;;;25.90;99.90;;;;;;5022348;28;20052;-55
2022/08/23 09:19:30;;;;;;;8.82;5.30;;;25.60;99.90;;;;;;5022069;28;20033;-57
2022/08/23 09:22:04;;;;;;;6.35;4.90;;;25.60;99.90;;;;;;5022848;28;20048;-58
2022/08/23 09:24:30;;;;;;;8.45;3.95;;;25.70;99.90;;;;;;5041876;28;20033;-57
2022/08/23 09:26:56;;;;;;;8.27;4.78;;;26.00;99.90;;;;;;5041768;28;20049;-57
2022/08/23 09:29:31;;;;;;;8.90;4.63;;;26.30;99.90;;;;;;5039956;28;20044;-58
2022/08/23 09:32:03;;;;;;;9.38;4.47;;;26.30;99.90;;;;;;5041049;28;20057;-57
2022/08/23 09:34:33;;;;;;;9.98;5.00;;;26.60;99.90;;;;;;5041968;28;20048;-58
2022/08/23 09:37:16;;;;;;;9.13;4.63;;;26.00;99.90;;;;;;5040445;28;20107;-58
2022/08/23 09:40:11;;;;;;;10.55;4.47;;;26.00;99.90;;;;;;5041500;28;20041;-58
2022/08/23 09:42:39;;;;;;;7.82;4.30;;;26.60;99.90;;;;;;5041366;28;20106;-57
2022/08/23 09:45:27;;;;;;;6.72;3.78;;;27.10;99.90;;;;;;5041281;28;20404;-58
2022/08/23 09:47:53;;;;;;;9.90;3.60;;;27.80;99.90;;;;;;5041332;28;20440;-58
2022/08/23 09:50:25;;;;;;;5.78;3.33;;;28.00;99.90;;;;;;5041755;28;20044;-58
2022/08/23 09:52:58;;;;;;;5.60;3.33;;;28.20;99.90;;;;;;5041433;28;20107;-58
2022/08/23 09:55:37;;;;;;;5.87;3.70;;;28.20;99.90;;;;;;5023789;28;20102;-58
2022/08/23 09:58:14;;;;;;;5.28;3.28;;;28.40;99.90;;;;;;5041826;28;20302;-58
2022/08/23 10:00:40;;;;;;;6.68;3.75;;;28.50;99.90;;;;;;5041009;28;20041;-57
2022/08/23 10:03:27;;;;;;;12.38;3.95;;;28.40;99.90;;;;;;5041636;28;20082;-58
2022/08/23 10:05:56;;;;;;;5.28;3.00;;;27.70;99.90;;;;;;5037364;28;20057;-58
2022/08/23 10:08:52;;;;;;;6.97;3.20;;;28.10;99.90;;;;;;5030852;28;20045;-58
2022/08/23 10:11:19;;;;;;;6.53;2.88;;;28.10;99.90;;;;;;5021526;28;20072;-58
2022/08/23 10:13:45;;;;;;;4.60;3.10;;;28.40;99.90;;;;;;5021785;28;20232;-58
2022/08/23 10:16:20;;;;;;;5.97;2.97;;;28.20;99.90;;;;;;5002952;28;20128;-58
2022/08/23 10:19:09;;;;;;;6.38;3.30;;;28.20;99.90;;;;;;5021845;28;20072;-57
2022/08/23 10:21:47;;;;;;;6.07;3.05;;;28.60;99.90;;;;;;5021436;28;20111;-58
2022/08/23 10:24:30;;;;;;;7.22;2.40;;;29.10;99.90;;;;;;5021799;28;20042;-58
2022/08/23 10:30:14;;;;;;;8.60;3.13;;;29.30;99.90;;;;;;5020828;28;21226;-58
2022/08/23 10:32:53;;;;;;;5.75;3.35;;;29.40;99.90;;;;;;5021316;28;20046;-57
2022/08/23 10:35:44;;;;;;;7.68;2.92;;;29.00;99.90;;;;;;5021086;28;20048;-58
2022/08/23 10:38:30;;;;;;;6.65;3.05;;;29.10;99.90;;;;;;5004131;28;20056;-58
2022/08/23 10:41:25;;;;;;;5.90;2.60;;;28.30;99.90;;;;;;5021340;28;20164;-58
2022/08/23 10:44:20;;;;;;;4.40;2.72;;;28.80;99.90;;;;;;5020944;28;20049;-58
2022/08/23 10:47:06;;;;;;;4.85;2.50;;;28.60;99.90;;;;;;5021377;28;20053;-58
2022/08/23 10:49:38;;;;;;;7.32;2.95;;;28.80;99.90;;;;;;5021870;28;20128;-58
2022/08/23 10:52:08;;;;;;;6.13;2.58;;;28.40;99.90;;;;;;5021852;28;20045;-59
2022/08/23 10:54:58;;;;;;;4.68;2.95;;;28.60;99.90;;;;;;5021314;28;20860;-58
2022/08/23 10:57:31;;;;;;;8.65;3.10;;;28.50;99.90;;;;;;5021566;28;20555;-58
2022/08/23 10:59:58;;;;;;;6.40;3.10;;;29.00;99.90;;;;;;5021986;28;20053;-59
2022/08/23 11:02:49;;;;;;;5.38;3.00;;;28.90;99.90;;;;;;5025114;28;20510;-59
2022/08/23 11:05:30;;;;;;;5.70;2.90;;;28.50;99.90;;;;;;5025459;28;20064;-58
2022/08/23 11:08:02;;;;;;;5.53;2.70;;;28.50;99.90;;;;;;5035070;28;20464;-58
2022/08/23 11:10:37;;;;;;;7.28;2.60;;;29.10;99.90;;;;;;5044343;28;20063;-58
2022/08/23 11:13:21;;;;;;;7.28;3.10;;;29.20;99.90;;;;;;5045067;28;20119;-58
2022/08/23 11:16:06;;;;;;;5.15;3.20;;;29.30;99.90;;;;;;5043396;28;20049;-58
2022/08/23 11:18:44;;;;;;;5.65;3.00;;;29.10;99.90;;;;;;5044555;28;20055;-60
2022/08/23 11:21:16;;;;;;;5.20;2.70;;;29.20;99.90;;;;;;5044644;28;20045;-59
2022/08/23 11:24:15;;;;;;;5.78;2.63;;;29.40;99.90;;;;;;5044390;28;20049;-60
2022/08/23 11:26:43;;;;;;;5.85;2.72;;;29.50;99.90;;;;;;5044125;28;20057;-59
2022/08/23 11:29:09;;;;;;;6.47;3.00;;;30.00;99.90;;;;;;5025935;28;20075;-62
2022/08/23 11:31:49;;;;;;;6.00;2.60;;;29.90;99.90;;;;;;5043613;28;20049;-61
2022/08/23 11:34:25;;;;;;;6.10;3.38;;;30.60;99.90;;;;;;5044288;28;20045;-60
2022/08/23 11:37:19;;;;;;;6.15;2.97;;;30.10;99.90;;;;;;5043658;28;20045;-59
2022/08/23 11:39:57;;;;;;;4.53;2.50;;;29.70;99.90;;;;;;5044162;28;20051;-59
2022/08/23 11:42:41;;;;;;;5.20;2.85;;;29.90;99.90;;;;;;5043732;28;20492;-59
2022/08/23 11:45:37;;;;;;;4.15;2.85;;;29.80;99.90;;;;;;5043779;28;20099;-60
2022/08/23 11:48:21;;;;;;;7.95;3.00;;;29.70;99.90;;;;;;5044719;28;20502;-59
2022/08/23 11:50:50;;;;;;;6.65;2.85;;;29.70;99.90;;;;;;5043071;28;20503;-59
2022/08/23 11:53:37;;;;;;;5.32;2.60;;;30.20;99.90;;;;;;5020354;28;20124;-59
2022/08/23 11:56:03;;;;;;;7.47;2.63;;;30.40;99.90;;;;;;5026651;28;20072;-59
2022/08/23 11:59:23;;;;;;;5.15;2.80;;;30.30;99.90;;;;;;5043258;28;20500;-59
2022/08/23 12:01:48;;;;;;;4.97;2.90;;;30.20;99.90;;;;;;4942624;29;20453;-59
2022/08/23 12:04:50;;;;;;;5.07;3.00;;;29.90;99.90;;;;;;5035423;28;20049;-60
2022/08/23 12:08:01;;;;;;;4.18;2.70;;;29.70;99.90;;;;;;4983300;28;20495;-59
2022/08/23 12:10:39;;;;;;;3.75;2.42;;;29.70;99.90;;;;;;5004221;28;20257;-59
2022/08/23 12:13:17;;;;;;;5.40;2.97;;;29.50;99.90;;;;;;5042387;28;20175;-59
2022/08/23 12:16:10;;;;;;;4.57;2.75;;;30.10;99.90;;;;;;5008540;28;20411;-60
2022/08/23 12:18:51;;;;;;;4.93;2.92;;;29.70;99.90;;;;;;5037689;28;20095;-59
2022/08/23 12:21:25;;;;;;;5.68;2.67;;;29.90;99.90;;;;;;5042174;28;20060;-58
2022/08/23 12:23:55;;;;;;;5.07;2.92;;;30.00;99.90;;;;;;5041280;28;20124;-59
2022/08/23 12:26:39;;;;;;;5.78;2.80;;;30.00;99.90;;;;;;5024654;28;20070;-59
2022/08/23 12:29:16;;;;;;;5.85;2.60;;;29.80;99.90;;;;;;5040960;28;20446;-60
2022/08/23 12:32:01;;;;;;;3.78;2.53;;;29.90;99.90;;;;;;5041252;28;20051;-60
2022/08/23 12:34:44;;;;;;;4.63;2.63;;;30.10;99.90;;;;;;5027595;28;20086;-60
2022/08/23 12:37:35;;;;;;;5.22;2.95;;;29.90;99.90;;;;;;5042226;28;20087;-60
2022/08/23 12:40:08;;;;;;;5.60;2.70;;;30.10;99.90;;;;;;5042478;28;20051;-59
2022/08/23 12:42:38;;;;;;;5.22;2.60;;;30.00;99.90;;;;;;5041996;28;20148;-59
2022/08/23 12:45:03;;;;;;;4.75;2.55;;;30.20;99.90;;;;;;5041184;28;20059;-59
2022/08/23 12:47:29;;;;;;;4.30;2.55;;;30.00;99.90;;;;;;5023800;28;20060;-59
2022/08/23 12:50:14;;;;;;;5.85;2.50;;;30.30;99.90;;;;;;5041759;28;20132;-60
2022/08/23 12:52:40;;;;;;;3.88;2.30;;;30.10;99.90;;;;;;5021887;28;20056;-60
2022/08/23 12:55:18;;;;;;;5.63;2.78;;;30.10;99.90;;;;;;5041841;28;20045;-60
2022/08/23 12:57:53;;;;;;;6.03;2.58;;;30.10;99.90;;;;;;5041719;28;20056;-60
2022/08/23 13:00:28;;;;;;;4.75;2.67;;;30.40;99.90;;;;;;5025776;28;20116;-59
2022/08/23 13:03:13;;;;;;;5.15;2.58;;;30.00;99.80;;;;;;5022558;28;20048;-60
2022/08/23 13:05:43;;;;;;;7.65;3.13;;;30.30;99.90;;;;;;5016309;28;20045;-60
2022/08/23 13:08:14;;;;;;;5.40;2.80;;;30.30;99.90;;;;;;5028254;28;20111;-60
2022/08/23 13:10:42;;;;;;;6.75;2.60;;;30.50;99.90;;;;;;5025232;28;20045;-61
2022/08/23 13:13:11;;;;;;;5.60;3.15;;;30.40;99.90;;;;;;5027521;28;20403;-62